sensor_id;sensor_type;location;lat;lon;timestamp;P1;durP1;ratioP1;P2;durP2;ratioP2
37077;SDS011;22989;55.998;37.212;2022-10-16T00:01:17;23.60;;;12.13;;
37077;SDS011;22989;55.998;37.212;2022-10-16T00:03:43;20.50;;;11.32;;
37077;SDS011;22989;55.998;37.212;2022-10-16T00:06:09;25.73;;;12.00;;
37077;SDS011;22989;55.998;37.212;2022-10-16T00:08:36;21.83;;;11.57;;
37077;SDS011;22989;55.998;37.212;2022-10-16T00:11:05;25.60;;;11.50;;
37077;SDS011;22989;55.998;37.212;2022-10-16T00:13:32;22.38;;;10.45;;
37077;SDS011;22989;55.998;37.212;2022-10-16T00:15:58;25.73;;;11.13;;
37077;SDS011;22989;55.998;37.212;2022-10-16T00:18:24;18.55;;;10.75;;
37077;SDS011;22989;55.998;37.212;2022-10-16T00:20:50;24.15;;;10.77;;
37077;SDS011;22989;55.998;37.212;2022-10-16T00:23:16;24.33;;;11.10;;
37077;SDS011;22989;55.998;37.212;2022-10-16T00:25:41;20.35;;;9.95;;
37077;SDS011;22989;55.998;37.212;2022-10-16T00:28:07;20.17;;;10.55;;
37077;SDS011;22989;55.998;37.212;2022-10-16T00:30:32;18.30;;;10.45;;
37077;SDS011;22989;55.998;37.212;2022-10-16T00:32:58;21.83;;;10.70;;
37077;SDS011;22989;55.998;37.212;2022-10-16T00:35:23;22.95;;;11.52;;
37077;SDS011;22989;55.998;37.212;2022-10-16T00:37:49;25.25;;;10.70;;
37077;SDS011;22989;55.998;37.212;2022-10-16T00:40:14;21.33;;;11.98;;
37077;SDS011;22989;55.998;37.212;2022-10-16T00:42:40;17.85;;;10.95;;
37077;SDS011;22989;55.998;37.212;2022-10-16T00:45:05;22.15;;;11.07;;
37077;SDS011;22989;55.998;37.212;2022-10-16T00:47:36;19.80;;;10.70;;
37077;SDS011;22989;55.998;37.212;2022-10-16T00:52:27;21.40;;;9.82;;
37077;SDS011;22989;55.998;37.212;2022-10-16T00:54:53;19.05;;;10.90;;
37077;SDS011;22989;55.998;37.212;2022-10-16T00:57:19;25.25;;;11.68;;
37077;SDS011;22989;55.998;37.212;2022-10-16T00:59:45;21.98;;;11.07;;
37077;SDS011;22989;55.998;37.212;2022-10-16T01:02:12;24.08;;;10.68;;
37077;SDS011;22989;55.998;37.212;2022-10-16T01:04:43;25.15;;;10.77;;
37077;SDS011;22989;55.998;37.212;2022-10-16T01:09:45;19.85;;;10.27;;
37077;SDS011;22989;55.998;37.212;2022-10-16T01:12:57;21.98;;;10.27;;
37077;SDS011;22989;55.998;37.212;2022-10-16T01:15:07;19.80;;;10.35;;
37077;SDS011;22989;55.998;37.212;2022-10-16T01:20:14;17.33;;;9.75;;
37077;SDS011;22989;55.998;37.212;2022-10-16T01:22:56;23.40;;;10.97;;
37077;SDS011;22989;55.998;37.212;2022-10-16T01:28:09;22.17;;;10.95;;
37077;SDS011;22989;55.998;37.212;2022-10-16T01:30:37;23.42;;;10.57;;
37077;SDS011;22989;55.998;37.212;2022-10-16T01:33:11;26.63;;;10.65;;
37077;SDS011;22989;55.998;37.212;2022-10-16T01:35:41;18.58;;;10.63;;
37077;SDS011;22989;55.998;37.212;2022-10-16T01:38:19;20.58;;;11.02;;
37077;SDS011;22989;55.998;37.212;2022-10-16T01:40:46;23.38;;;10.55;;
37077;SDS011;22989;55.998;37.212;2022-10-16T01:43:20;21.35;;;10.75;;
37077;SDS011;22989;55.998;37.212;2022-10-16T01:45:47;17.92;;;9.75;;
37077;SDS011;22989;55.998;37.212;2022-10-16T01:48:14;20.17;;;10.27;;
37077;SDS011;22989;55.998;37.212;2022-10-16T01:50:41;16.98;;;10.07;;
37077;SDS011;22989;55.998;37.212;2022-10-16T01:53:08;15.63;;;9.35;;
37077;SDS011;22989;55.998;37.212;2022-10-16T01:55:37;18.00;;;9.13;;
37077;SDS011;22989;55.998;37.212;2022-10-16T01:58:05;18.23;;;9.55;;
37077;SDS011;22989;55.998;37.212;2022-10-16T02:00:32;34.50;;;17.27;;
37077;SDS011;22989;55.998;37.212;2022-10-16T02:02:58;25.73;;;11.07;;
37077;SDS011;22989;55.998;37.212;2022-10-16T02:06:08;19.85;;;10.15;;
37077;SDS011;22989;55.998;37.212;2022-10-16T02:08:14;21.35;;;10.05;;
37077;SDS011;22989;55.998;37.212;2022-10-16T02:10:40;18.92;;;10.27;;
37077;SDS011;22989;55.998;37.212;2022-10-16T02:15:40;18.33;;;9.50;;
37077;SDS011;22989;55.998;37.212;2022-10-16T02:18:05;17.15;;;9.30;;
37077;SDS011;22989;55.998;37.212;2022-10-16T02:23:34;19.58;;;9.45;;
37077;SDS011;22989;55.998;37.212;2022-10-16T02:26:02;19.45;;;10.20;;
37077;SDS011;22989;55.998;37.212;2022-10-16T02:28:31;18.65;;;9.55;;
37077;SDS011;22989;55.998;37.212;2022-10-16T02:31:00;15.57;;;9.57;;
37077;SDS011;22989;55.998;37.212;2022-10-16T02:33:27;17.67;;;9.38;;
37077;SDS011;22989;55.998;37.212;2022-10-16T02:35:53;21.35;;;10.25;;
37077;SDS011;22989;55.998;37.212;2022-10-16T02:38:20;18.17;;;9.95;;
37077;SDS011;22989;55.998;37.212;2022-10-16T02:40:46;17.30;;;9.48;;
37077;SDS011;22989;55.998;37.212;2022-10-16T02:43:11;22.40;;;10.07;;
37077;SDS011;22989;55.998;37.212;2022-10-16T02:45:37;20.70;;;10.10;;
37077;SDS011;22989;55.998;37.212;2022-10-16T02:48:03;19.35;;;9.60;;
37077;SDS011;22989;55.998;37.212;2022-10-16T02:50:28;16.02;;;10.13;;
37077;SDS011;22989;55.998;37.212;2022-10-16T02:52:54;21.73;;;9.40;;
37077;SDS011;22989;55.998;37.212;2022-10-16T02:55:19;18.42;;;9.70;;
37077;SDS011;22989;55.998;37.212;2022-10-16T02:57:45;21.85;;;10.18;;
37077;SDS011;22989;55.998;37.212;2022-10-16T03:00:11;20.13;;;10.27;;
37077;SDS011;22989;55.998;37.212;2022-10-16T03:02:37;17.88;;;9.93;;
37077;SDS011;22989;55.998;37.212;2022-10-16T03:05:03;23.25;;;9.90;;
37077;SDS011;22989;55.998;37.212;2022-10-16T03:07:28;16.90;;;9.48;;
37077;SDS011;22989;55.998;37.212;2022-10-16T03:09:54;15.57;;;9.73;;
37077;SDS011;22989;55.998;37.212;2022-10-16T03:12:20;17.63;;;9.40;;
37077;SDS011;22989;55.998;37.212;2022-10-16T03:14:46;14.93;;;9.77;;
37077;SDS011;22989;55.998;37.212;2022-10-16T03:17:11;20.35;;;9.63;;
37077;SDS011;22989;55.998;37.212;2022-10-16T03:19:38;24.30;;;9.63;;
37077;SDS011;22989;55.998;37.212;2022-10-16T03:22:03;20.50;;;9.85;;
37077;SDS011;22989;55.998;37.212;2022-10-16T03:24:29;21.02;;;9.55;;
37077;SDS011;22989;55.998;37.212;2022-10-16T03:26:54;16.45;;;9.65;;
37077;SDS011;22989;55.998;37.212;2022-10-16T03:29:21;17.02;;;9.73;;
37077;SDS011;22989;55.998;37.212;2022-10-16T03:31:46;16.35;;;8.73;;
37077;SDS011;22989;55.998;37.212;2022-10-16T03:34:14;18.02;;;9.00;;
37077;SDS011;22989;55.998;37.212;2022-10-16T03:36:40;19.50;;;9.52;;
37077;SDS011;22989;55.998;37.212;2022-10-16T03:39:05;16.23;;;8.73;;
37077;SDS011;22989;55.998;37.212;2022-10-16T03:41:31;19.35;;;9.35;;
37077;SDS011;22989;55.998;37.212;2022-10-16T03:43:56;19.38;;;9.60;;
37077;SDS011;22989;55.998;37.212;2022-10-16T03:46:22;16.83;;;9.57;;
37077;SDS011;22989;55.998;37.212;2022-10-16T03:48:47;16.73;;;9.15;;
37077;SDS011;22989;55.998;37.212;2022-10-16T03:51:12;18.00;;;9.13;;
37077;SDS011;22989;55.998;37.212;2022-10-16T03:53:38;15.52;;;8.77;;
37077;SDS011;22989;55.998;37.212;2022-10-16T03:56:04;16.98;;;8.90;;
37077;SDS011;22989;55.998;37.212;2022-10-16T03:58:29;15.88;;;9.02;;
37077;SDS011;22989;55.998;37.212;2022-10-16T04:00:55;19.50;;;9.23;;
37077;SDS011;22989;55.998;37.212;2022-10-16T04:03:20;15.95;;;8.52;;
37077;SDS011;22989;55.998;37.212;2022-10-16T04:05:46;17.98;;;9.48;;
37077;SDS011;22989;55.998;37.212;2022-10-16T04:08:12;19.52;;;8.60;;
37077;SDS011;22989;55.998;37.212;2022-10-16T04:10:37;14.68;;;8.43;;
37077;SDS011;22989;55.998;37.212;2022-10-16T04:13:02;17.88;;;8.52;;
37077;SDS011;22989;55.998;37.212;2022-10-16T04:15:28;16.25;;;8.63;;
37077;SDS011;22989;55.998;37.212;2022-10-16T04:17:53;15.73;;;9.10;;
37077;SDS011;22989;55.998;37.212;2022-10-16T04:20:19;14.38;;;8.30;;
37077;SDS011;22989;55.998;37.212;2022-10-16T04:22:44;14.85;;;8.55;;
37077;SDS011;22989;55.998;37.212;2022-10-16T04:25:10;20.08;;;8.50;;
37077;SDS011;22989;55.998;37.212;2022-10-16T04:27:37;17.52;;;8.57;;
37077;SDS011;22989;55.998;37.212;2022-10-16T04:30:03;15.93;;;8.50;;
37077;SDS011;22989;55.998;37.212;2022-10-16T04:32:29;14.40;;;8.60;;
37077;SDS011;22989;55.998;37.212;2022-10-16T04:34:54;16.38;;;8.05;;
37077;SDS011;22989;55.998;37.212;2022-10-16T04:37:23;23.10;;;10.00;;
37077;SDS011;22989;55.998;37.212;2022-10-16T04:39:48;19.52;;;10.18;;
37077;SDS011;22989;55.998;37.212;2022-10-16T04:42:14;15.38;;;7.85;;
37077;SDS011;22989;55.998;37.212;2022-10-16T04:44:39;16.15;;;8.52;;
37077;SDS011;22989;55.998;37.212;2022-10-16T04:47:05;14.10;;;7.85;;
37077;SDS011;22989;55.998;37.212;2022-10-16T04:49:30;17.77;;;8.50;;
37077;SDS011;22989;55.998;37.212;2022-10-16T04:51:56;20.95;;;7.70;;
37077;SDS011;22989;55.998;37.212;2022-10-16T04:54:21;19.02;;;7.15;;
37077;SDS011;22989;55.998;37.212;2022-10-16T04:56:47;16.90;;;7.82;;
37077;SDS011;22989;55.998;37.212;2022-10-16T04:59:13;12.25;;;7.88;;
37077;SDS011;22989;55.998;37.212;2022-10-16T05:01:39;16.42;;;7.70;;
37077;SDS011;22989;55.998;37.212;2022-10-16T05:04:04;12.60;;;7.60;;
37077;SDS011;22989;55.998;37.212;2022-10-16T05:06:30;10.27;;;7.05;;
37077;SDS011;22989;55.998;37.212;2022-10-16T05:08:55;14.70;;;7.55;;
37077;SDS011;22989;55.998;37.212;2022-10-16T05:11:20;11.93;;;7.38;;
37077;SDS011;22989;55.998;37.212;2022-10-16T05:13:46;14.07;;;7.50;;
37077;SDS011;22989;55.998;37.212;2022-10-16T05:16:12;14.35;;;8.30;;
37077;SDS011;22989;55.998;37.212;2022-10-16T05:18:38;14.20;;;7.38;;
37077;SDS011;22989;55.998;37.212;2022-10-16T05:21:04;15.55;;;8.02;;
37077;SDS011;22989;55.998;37.212;2022-10-16T05:23:31;14.88;;;7.63;;
37077;SDS011;22989;55.998;37.212;2022-10-16T05:25:56;14.57;;;7.25;;
37077;SDS011;22989;55.998;37.212;2022-10-16T05:28:27;16.23;;;7.82;;
37077;SDS011;22989;55.998;37.212;2022-10-16T05:30:52;11.05;;;6.97;;
37077;SDS011;22989;55.998;37.212;2022-10-16T05:33:22;14.40;;;8.05;;
37077;SDS011;22989;55.998;37.212;2022-10-16T05:35:48;17.08;;;8.15;;
37077;SDS011;22989;55.998;37.212;2022-10-16T05:38:13;13.73;;;7.80;;
37077;SDS011;22989;55.998;37.212;2022-10-16T05:40:38;17.73;;;7.55;;
37077;SDS011;22989;55.998;37.212;2022-10-16T05:43:04;14.10;;;7.70;;
37077;SDS011;22989;55.998;37.212;2022-10-16T05:45:30;12.50;;;7.82;;
37077;SDS011;22989;55.998;37.212;2022-10-16T05:47:55;15.65;;;8.60;;
37077;SDS011;22989;55.998;37.212;2022-10-16T05:50:21;16.77;;;8.25;;
37077;SDS011;22989;55.998;37.212;2022-10-16T05:52:46;17.27;;;8.32;;
37077;SDS011;22989;55.998;37.212;2022-10-16T05:55:11;16.92;;;7.65;;
37077;SDS011;22989;55.998;37.212;2022-10-16T05:57:37;19.55;;;7.88;;
37077;SDS011;22989;55.998;37.212;2022-10-16T06:00:03;11.82;;;7.35;;
37077;SDS011;22989;55.998;37.212;2022-10-16T06:02:38;14.18;;;7.20;;
37077;SDS011;22989;55.998;37.212;2022-10-16T06:05:03;16.45;;;8.80;;
37077;SDS011;22989;55.998;37.212;2022-10-16T06:07:33;24.13;;;7.88;;
37077;SDS011;22989;55.998;37.212;2022-10-16T06:09:59;16.38;;;7.60;;
37077;SDS011;22989;55.998;37.212;2022-10-16T06:12:24;15.57;;;7.13;;
37077;SDS011;22989;55.998;37.212;2022-10-16T06:14:50;21.75;;;7.60;;
37077;SDS011;22989;55.998;37.212;2022-10-16T06:17:15;18.02;;;7.72;;
37077;SDS011;22989;55.998;37.212;2022-10-16T06:19:41;13.38;;;7.82;;
37077;SDS011;22989;55.998;37.212;2022-10-16T06:22:07;13.45;;;7.47;;
37077;SDS011;22989;55.998;37.212;2022-10-16T06:24:32;13.77;;;7.25;;
37077;SDS011;22989;55.998;37.212;2022-10-16T06:26:57;12.88;;;6.57;;
37077;SDS011;22989;55.998;37.212;2022-10-16T06:29:23;16.55;;;6.82;;
37077;SDS011;22989;55.998;37.212;2022-10-16T06:31:48;10.45;;;6.75;;
37077;SDS011;22989;55.998;37.212;2022-10-16T06:34:14;13.15;;;6.78;;
37077;SDS011;22989;55.998;37.212;2022-10-16T06:36:40;14.77;;;6.70;;
37077;SDS011;22989;55.998;37.212;2022-10-16T06:39:06;15.23;;;6.72;;
37077;SDS011;22989;55.998;37.212;2022-10-16T06:41:35;11.52;;;5.82;;
37077;SDS011;22989;55.998;37.212;2022-10-16T06:44:13;11.20;;;6.07;;
37077;SDS011;22989;55.998;37.212;2022-10-16T06:46:39;11.07;;;6.30;;
37077;SDS011;22989;55.998;37.212;2022-10-16T06:49:04;13.23;;;6.80;;
37077;SDS011;22989;55.998;37.212;2022-10-16T06:51:29;14.20;;;6.55;;
37077;SDS011;22989;55.998;37.212;2022-10-16T06:53:57;18.02;;;6.40;;
37077;SDS011;22989;55.998;37.212;2022-10-16T06:56:23;12.50;;;6.32;;
37077;SDS011;22989;55.998;37.212;2022-10-16T06:58:50;13.48;;;6.35;;
37077;SDS011;22989;55.998;37.212;2022-10-16T07:01:16;11.65;;;6.00;;
37077;SDS011;22989;55.998;37.212;2022-10-16T07:03:43;8.98;;;5.63;;
37077;SDS011;22989;55.998;37.212;2022-10-16T07:06:10;16.00;;;5.85;;
37077;SDS011;22989;55.998;37.212;2022-10-16T07:08:36;12.88;;;6.32;;
37077;SDS011;22989;55.998;37.212;2022-10-16T07:11:03;10.85;;;5.47;;
37077;SDS011;22989;55.998;37.212;2022-10-16T07:13:29;8.65;;;5.35;;
37077;SDS011;22989;55.998;37.212;2022-10-16T07:15:54;15.40;;;5.97;;
37077;SDS011;22989;55.998;37.212;2022-10-16T07:18:20;10.77;;;5.68;;
37077;SDS011;22989;55.998;37.212;2022-10-16T07:20:45;12.07;;;5.60;;
37077;SDS011;22989;55.998;37.212;2022-10-16T07:23:11;15.43;;;6.78;;
37077;SDS011;22989;55.998;37.212;2022-10-16T07:25:36;10.48;;;5.85;;
37077;SDS011;22989;55.998;37.212;2022-10-16T07:28:02;11.07;;;5.65;;
37077;SDS011;22989;55.998;37.212;2022-10-16T07:30:27;10.45;;;5.32;;
37077;SDS011;22989;55.998;37.212;2022-10-16T07:32:53;11.60;;;6.10;;
37077;SDS011;22989;55.998;37.212;2022-10-16T07:35:18;9.68;;;5.43;;
37077;SDS011;22989;55.998;37.212;2022-10-16T07:37:44;11.32;;;5.80;;
37077;SDS011;22989;55.998;37.212;2022-10-16T07:40:10;9.52;;;5.75;;
37077;SDS011;22989;55.998;37.212;2022-10-16T07:42:35;14.48;;;6.10;;
37077;SDS011;22989;55.998;37.212;2022-10-16T07:45:01;11.05;;;5.25;;
37077;SDS011;22989;55.998;37.212;2022-10-16T07:47:26;7.85;;;5.05;;
37077;SDS011;22989;55.998;37.212;2022-10-16T07:49:51;14.60;;;4.97;;
37077;SDS011;22989;55.998;37.212;2022-10-16T07:52:17;10.85;;;5.10;;
37077;SDS011;22989;55.998;37.212;2022-10-16T07:54:42;8.93;;;5.07;;
37077;SDS011;22989;55.998;37.212;2022-10-16T07:57:08;10.75;;;5.00;;
37077;SDS011;22989;55.998;37.212;2022-10-16T07:59:33;8.20;;;5.22;;
37077;SDS011;22989;55.998;37.212;2022-10-16T08:01:59;12.45;;;5.68;;
37077;SDS011;22989;55.998;37.212;2022-10-16T08:04:24;13.13;;;6.25;;
37077;SDS011;22989;55.998;37.212;2022-10-16T08:06:49;11.10;;;5.22;;
37077;SDS011;22989;55.998;37.212;2022-10-16T08:20:40;14.43;;;5.43;;
37077;SDS011;22989;55.998;37.212;2022-10-16T08:23:05;10.55;;;5.03;;
37077;SDS011;22989;55.998;37.212;2022-10-16T08:25:33;12.60;;;5.38;;
37077;SDS011;22989;55.998;37.212;2022-10-16T08:27:59;9.35;;;4.53;;
37077;SDS011;22989;55.998;37.212;2022-10-16T08:30:24;11.68;;;4.57;;
37077;SDS011;22989;55.998;37.212;2022-10-16T08:32:50;15.35;;;5.00;;
37077;SDS011;22989;55.998;37.212;2022-10-16T08:35:16;11.77;;;4.80;;
37077;SDS011;22989;55.998;37.212;2022-10-16T08:37:41;11.75;;;5.00;;
37077;SDS011;22989;55.998;37.212;2022-10-16T08:40:13;7.50;;;4.28;;
37077;SDS011;22989;55.998;37.212;2022-10-16T08:50:58;12.70;;;4.40;;
37077;SDS011;22989;55.998;37.212;2022-10-16T08:53:43;11.63;;;4.85;;
37077;SDS011;22989;55.998;37.212;2022-10-16T08:56:10;8.43;;;4.45;;
37077;SDS011;22989;55.998;37.212;2022-10-16T08:58:35;8.10;;;4.63;;
37077;SDS011;22989;55.998;37.212;2022-10-16T09:01:01;10.75;;;4.85;;
37077;SDS011;22989;55.998;37.212;2022-10-16T09:19:01;8.57;;;4.70;;
37077;SDS011;22989;55.998;37.212;2022-10-16T09:23:54;8.27;;;4.25;;
37077;SDS011;22989;55.998;37.212;2022-10-16T09:26:22;11.27;;;4.10;;
37077;SDS011;22989;55.998;37.212;2022-10-16T09:28:47;7.40;;;3.83;;
37077;SDS011;22989;55.998;37.212;2022-10-16T09:31:20;7.28;;;3.83;;
37077;SDS011;22989;55.998;37.212;2022-10-16T09:33:48;12.00;;;4.13;;
37077;SDS011;22989;55.998;37.212;2022-10-16T09:36:14;12.57;;;4.22;;
37077;SDS011;22989;55.998;37.212;2022-10-16T09:38:40;11.27;;;4.65;;
37077;SDS011;22989;55.998;37.212;2022-10-16T09:41:16;10.23;;;4.40;;
37077;SDS011;22989;55.998;37.212;2022-10-16T09:43:53;9.13;;;4.20;;
37077;SDS011;22989;55.998;37.212;2022-10-16T09:46:21;6.80;;;3.80;;
37077;SDS011;22989;55.998;37.212;2022-10-16T09:48:48;6.35;;;3.47;;
37077;SDS011;22989;55.998;37.212;2022-10-16T09:51:35;7.25;;;3.55;;
37077;SDS011;22989;55.998;37.212;2022-10-16T09:56:33;4.97;;;3.38;;
37077;SDS011;22989;55.998;37.212;2022-10-16T09:59:00;8.95;;;3.28;;
37077;SDS011;22989;55.998;37.212;2022-10-16T10:01:28;11.93;;;3.67;;
37077;SDS011;22989;55.998;37.212;2022-10-16T10:03:55;8.05;;;3.17;;
37077;SDS011;22989;55.998;37.212;2022-10-16T10:06:30;4.75;;;3.20;;
37077;SDS011;22989;55.998;37.212;2022-10-16T10:09:00;9.48;;;3.40;;
37077;SDS011;22989;55.998;37.212;2022-10-16T10:12:27;5.75;;;3.20;;
37077;SDS011;22989;55.998;37.212;2022-10-16T10:19:41;8.90;;;3.03;;
37077;SDS011;22989;55.998;37.212;2022-10-16T10:22:24;12.35;;;3.42;;
37077;SDS011;22989;55.998;37.212;2022-10-16T10:25:01;9.20;;;3.20;;
37077;SDS011;22989;55.998;37.212;2022-10-16T10:27:48;5.85;;;3.00;;
37077;SDS011;22989;55.998;37.212;2022-10-16T10:45:42;10.05;;;3.95;;
37077;SDS011;22989;55.998;37.212;2022-10-16T10:50:51;8.13;;;3.22;;
37077;SDS011;22989;55.998;37.212;2022-10-16T11:06:08;9.07;;;3.83;;
37077;SDS011;22989;55.998;37.212;2022-10-16T11:08:43;9.40;;;3.25;;
37077;SDS011;22989;55.998;37.212;2022-10-16T11:16:44;10.93;;;7.65;;
37077;SDS011;22989;55.998;37.212;2022-10-16T11:21:50;8.45;;;3.30;;
37077;SDS011;22989;55.998;37.212;2022-10-16T11:24:24;4.35;;;3.08;;
37077;SDS011;22989;55.998;37.212;2022-10-16T11:26:55;8.50;;;3.58;;
37077;SDS011;22989;55.998;37.212;2022-10-16T11:29:28;10.98;;;3.35;;
37077;SDS011;22989;55.998;37.212;2022-10-16T11:32:07;6.57;;;3.35;;
37077;SDS011;22989;55.998;37.212;2022-10-16T11:34:42;5.53;;;3.22;;
37077;SDS011;22989;55.998;37.212;2022-10-16T11:37:11;9.00;;;3.03;;
37077;SDS011;22989;55.998;37.212;2022-10-16T11:39:36;7.28;;;3.80;;
37077;SDS011;22989;55.998;37.212;2022-10-16T11:47:35;8.52;;;3.60;;
37077;SDS011;22989;55.998;37.212;2022-10-16T11:58:22;7.95;;;3.42;;
37077;SDS011;22989;55.998;37.212;2022-10-16T12:03:33;11.20;;;3.47;;
37077;SDS011;22989;55.998;37.212;2022-10-16T12:08:25;7.40;;;3.50;;
37077;SDS011;22989;55.998;37.212;2022-10-16T12:10:52;7.57;;;3.30;;
37077;SDS011;22989;55.998;37.212;2022-10-16T12:13:37;7.93;;;3.58;;
37077;SDS011;22989;55.998;37.212;2022-10-16T12:18:38;7.72;;;3.35;;
37077;SDS011;22989;55.998;37.212;2022-10-16T12:21:04;10.43;;;3.50;;
37077;SDS011;22989;55.998;37.212;2022-10-16T12:23:32;6.43;;;3.10;;
37077;SDS011;22989;55.998;37.212;2022-10-16T12:25:58;10.40;;;3.67;;
37077;SDS011;22989;55.998;37.212;2022-10-16T12:28:27;7.53;;;3.40;;
37077;SDS011;22989;55.998;37.212;2022-10-16T12:31:06;5.88;;;3.42;;
37077;SDS011;22989;55.998;37.212;2022-10-16T12:33:34;5.97;;;3.47;;
37077;SDS011;22989;55.998;37.212;2022-10-16T12:36:01;6.18;;;3.50;;
37077;SDS011;22989;55.998;37.212;2022-10-16T12:38:35;7.30;;;3.60;;
37077;SDS011;22989;55.998;37.212;2022-10-16T12:43:34;6.32;;;3.60;;
37077;SDS011;22989;55.998;37.212;2022-10-16T12:46:00;8.48;;;3.33;;
37077;SDS011;22989;55.998;37.212;2022-10-16T12:48:26;5.13;;;3.25;;
37077;SDS011;22989;55.998;37.212;2022-10-16T12:50:52;8.73;;;3.70;;
37077;SDS011;22989;55.998;37.212;2022-10-16T12:53:22;11.45;;;3.78;;
37077;SDS011;22989;55.998;37.212;2022-10-16T13:01:09;10.18;;;3.60;;
37077;SDS011;22989;55.998;37.212;2022-10-16T13:06:05;8.98;;;3.40;;
37077;SDS011;22989;55.998;37.212;2022-10-16T13:11:19;8.25;;;3.47;;
37077;SDS011;22989;55.998;37.212;2022-10-16T13:16:23;8.02;;;3.50;;
37077;SDS011;22989;55.998;37.212;2022-10-16T13:19:04;6.03;;;3.28;;
37077;SDS011;22989;55.998;37.212;2022-10-16T13:21:47;9.40;;;3.63;;
37077;SDS011;22989;55.998;37.212;2022-10-16T13:24:25;5.90;;;3.50;;
37077;SDS011;22989;55.998;37.212;2022-10-16T13:27:09;9.00;;;3.80;;
37077;SDS011;22989;55.998;37.212;2022-10-16T13:29:35;14.13;;;4.10;;
37077;SDS011;22989;55.998;37.212;2022-10-16T13:32:01;8.23;;;3.47;;
37077;SDS011;22989;55.998;37.212;2022-10-16T13:34:32;7.55;;;3.55;;
37077;SDS011;22989;55.998;37.212;2022-10-16T13:36:57;6.15;;;3.95;;
37077;SDS011;22989;55.998;37.212;2022-10-16T13:39:24;7.68;;;4.10;;
37077;SDS011;22989;55.998;37.212;2022-10-16T13:44:44;9.20;;;3.83;;
37077;SDS011;22989;55.998;37.212;2022-10-16T13:47:21;7.63;;;4.15;;
37077;SDS011;22989;55.998;37.212;2022-10-16T13:49:47;10.85;;;5.00;;
37077;SDS011;22989;55.998;37.212;2022-10-16T13:52:23;10.23;;;4.97;;
37077;SDS011;22989;55.998;37.212;2022-10-16T13:54:49;13.00;;;4.55;;
37077;SDS011;22989;55.998;37.212;2022-10-16T13:57:15;9.55;;;4.85;;
37077;SDS011;22989;55.998;37.212;2022-10-16T13:59:40;10.32;;;5.68;;
37077;SDS011;22989;55.998;37.212;2022-10-16T14:04:47;10.95;;;5.07;;
37077;SDS011;22989;55.998;37.212;2022-10-16T14:07:14;15.15;;;6.00;;
37077;SDS011;22989;55.998;37.212;2022-10-16T14:09:47;11.00;;;4.72;;
37077;SDS011;22989;55.998;37.212;2022-10-16T14:12:13;10.60;;;5.00;;
37077;SDS011;22989;55.998;37.212;2022-10-16T14:14:45;7.30;;;4.47;;
37077;SDS011;22989;55.998;37.212;2022-10-16T14:17:18;8.27;;;4.68;;
37077;SDS011;22989;55.998;37.212;2022-10-16T14:19:48;11.35;;;4.78;;
37077;SDS011;22989;55.998;37.212;2022-10-16T14:22:33;13.27;;;4.60;;
37077;SDS011;22989;55.998;37.212;2022-10-16T14:24:59;8.13;;;4.50;;
37077;SDS011;22989;55.998;37.212;2022-10-16T14:32:39;12.50;;;4.72;;
37077;SDS011;22989;55.998;37.212;2022-10-16T14:35:11;11.55;;;5.20;;
37077;SDS011;22989;55.998;37.212;2022-10-16T14:37:50;10.25;;;5.28;;
37077;SDS011;22989;55.998;37.212;2022-10-16T14:40:16;13.77;;;6.18;;
37077;SDS011;22989;55.998;37.212;2022-10-16T14:42:42;10.10;;;5.35;;
37077;SDS011;22989;55.998;37.212;2022-10-16T14:45:09;12.98;;;5.57;;
37077;SDS011;22989;55.998;37.212;2022-10-16T14:47:35;10.88;;;5.72;;
37077;SDS011;22989;55.998;37.212;2022-10-16T14:50:02;15.15;;;6.32;;
37077;SDS011;22989;55.998;37.212;2022-10-16T14:52:27;19.50;;;6.20;;
37077;SDS011;22989;55.998;37.212;2022-10-16T14:54:53;21.77;;;7.45;;
37077;SDS011;22989;55.998;37.212;2022-10-16T14:57:26;16.60;;;7.25;;
37077;SDS011;22989;55.998;37.212;2022-10-16T14:59:52;17.05;;;7.45;;
37077;SDS011;22989;55.998;37.212;2022-10-16T15:02:34;17.67;;;8.43;;
37077;SDS011;22989;55.998;37.212;2022-10-16T15:05:33;21.50;;;10.03;;
37077;SDS011;22989;55.998;37.212;2022-10-16T15:07:53;24.88;;;9.88;;
37077;SDS011;22989;55.998;37.212;2022-10-16T15:10:19;24.70;;;11.02;;
37077;SDS011;22989;55.998;37.212;2022-10-16T15:12:45;20.55;;;9.88;;
37077;SDS011;22989;55.998;37.212;2022-10-16T15:17:36;23.08;;;10.52;;
37077;SDS011;22989;55.998;37.212;2022-10-16T15:20:01;18.73;;;10.13;;
37077;SDS011;22989;55.998;37.212;2022-10-16T15:22:27;24.98;;;12.40;;
37077;SDS011;22989;55.998;37.212;2022-10-16T15:24:52;20.63;;;10.25;;
37077;SDS011;22989;55.998;37.212;2022-10-16T15:27:18;21.23;;;10.63;;
37077;SDS011;22989;55.998;37.212;2022-10-16T15:29:43;19.60;;;10.50;;
37077;SDS011;22989;55.998;37.212;2022-10-16T15:32:10;20.60;;;10.13;;
37077;SDS011;22989;55.998;37.212;2022-10-16T15:34:35;26.45;;;9.73;;
37077;SDS011;22989;55.998;37.212;2022-10-16T15:37:04;23.50;;;10.52;;
37077;SDS011;22989;55.998;37.212;2022-10-16T15:39:29;20.60;;;9.98;;
37077;SDS011;22989;55.998;37.212;2022-10-16T15:41:55;20.15;;;9.82;;
37077;SDS011;22989;55.998;37.212;2022-10-16T15:44:20;17.70;;;9.40;;
37077;SDS011;22989;55.998;37.212;2022-10-16T15:46:48;22.23;;;10.40;;
37077;SDS011;22989;55.998;37.212;2022-10-16T15:49:13;22.98;;;10.27;;
37077;SDS011;22989;55.998;37.212;2022-10-16T15:51:40;20.42;;;10.55;;
37077;SDS011;22989;55.998;37.212;2022-10-16T15:54:05;24.95;;;11.27;;
37077;SDS011;22989;55.998;37.212;2022-10-16T15:56:31;32.85;;;12.68;;
37077;SDS011;22989;55.998;37.212;2022-10-16T15:59:01;24.67;;;12.13;;
37077;SDS011;22989;55.998;37.212;2022-10-16T16:01:27;19.42;;;10.25;;
37077;SDS011;22989;55.998;37.212;2022-10-16T16:03:54;28.25;;;9.43;;
37077;SDS011;22989;55.998;37.212;2022-10-16T16:06:21;21.15;;;9.23;;
37077;SDS011;22989;55.998;37.212;2022-10-16T16:08:46;19.58;;;9.40;;
37077;SDS011;22989;55.998;37.212;2022-10-16T16:11:13;17.75;;;9.80;;
37077;SDS011;22989;55.998;37.212;2022-10-16T16:13:38;20.67;;;9.77;;
37077;SDS011;22989;55.998;37.212;2022-10-16T16:16:07;26.02;;;10.95;;
37077;SDS011;22989;55.998;37.212;2022-10-16T16:18:33;20.73;;;10.80;;
37077;SDS011;22989;55.998;37.212;2022-10-16T16:20:59;23.23;;;11.82;;
37077;SDS011;22989;55.998;37.212;2022-10-16T16:23:24;27.70;;;13.68;;
37077;SDS011;22989;55.998;37.212;2022-10-16T16:26:02;27.55;;;12.55;;
37077;SDS011;22989;55.998;37.212;2022-10-16T16:28:27;23.48;;;11.35;;
37077;SDS011;22989;55.998;37.212;2022-10-16T16:30:53;31.77;;;11.98;;
37077;SDS011;22989;55.998;37.212;2022-10-16T16:33:18;22.80;;;11.50;;
37077;SDS011;22989;55.998;37.212;2022-10-16T16:35:44;21.77;;;9.88;;
37077;SDS011;22989;55.998;37.212;2022-10-16T16:38:09;22.13;;;10.25;;
37077;SDS011;22989;55.998;37.212;2022-10-16T16:40:35;22.85;;;10.43;;
37077;SDS011;22989;55.998;37.212;2022-10-16T16:43:00;19.40;;;10.52;;
37077;SDS011;22989;55.998;37.212;2022-10-16T16:45:26;21.05;;;10.63;;
37077;SDS011;22989;55.998;37.212;2022-10-16T16:47:51;26.63;;;12.93;;
37077;SDS011;22989;55.998;37.212;2022-10-16T16:50:17;22.45;;;10.90;;
37077;SDS011;22989;55.998;37.212;2022-10-16T16:52:42;18.60;;;10.32;;
37077;SDS011;22989;55.998;37.212;2022-10-16T16:55:07;22.35;;;9.80;;